createdAt,value
2018-05-06T00:00:00.816Z,0.60
2018-05-06T00:02:27.720Z,0.60
2018-05-06T00:04:53.942Z,0.80
2018-05-06T00:07:20.099Z,0.90
2018-05-06T00:09:46.301Z,0.70
2018-05-06T00:12:12.497Z,0.67
2018-05-06T00:14:38.700Z,0.83
2018-05-06T00:17:05.583Z,0.60
2018-05-06T00:19:31.760Z,0.67
2018-05-06T00:21:58.695Z,0.80
2018-05-06T00:24:24.864Z,0.70
2018-05-06T00:26:51.060Z,0.60
2018-05-06T00:29:17.969Z,0.60
2018-05-06T00:31:44.159Z,0.60
2018-05-06T00:34:11.059Z,0.70
2018-05-06T00:36:37.985Z,1.07
2018-05-06T00:39:04.158Z,0.80
2018-05-06T00:41:30.335Z,0.70
2018-05-06T00:43:56.479Z,0.70
2018-05-06T00:46:22.835Z,0.60
2018-05-06T00:48:48.873Z,0.70
2018-05-06T00:51:15.056Z,0.70
2018-05-06T00:53:41.994Z,0.87
2018-05-06T00:56:08.168Z,0.70
2018-05-06T00:58:34.356Z,0.60
2018-05-06T01:01:01.259Z,0.70
2018-05-06T01:03:27.460Z,0.70
2018-05-06T01:05:53.660Z,0.77
2018-05-06T01:08:19.825Z,0.70
2018-05-06T01:10:46.052Z,0.70
2018-05-06T01:13:12.215Z,0.60
2018-05-06T01:15:38.392Z,0.70
2018-05-06T01:18:04.564Z,0.67
2018-05-06T01:20:30.756Z,0.70
2018-05-06T01:22:56.946Z,0.73
2018-05-06T01:25:23.862Z,0.60
2018-05-06T01:27:50.028Z,0.73
2018-05-06T01:30:16.197Z,0.60
2018-05-06T01:32:42.390Z,0.83
2018-05-06T01:35:08.549Z,0.80
2018-05-06T01:37:34.740Z,0.70
2018-05-06T01:40:00.914Z,0.70
2018-05-06T01:42:27.072Z,0.80
2018-05-06T01:44:53.250Z,0.60
2018-05-06T01:47:19.442Z,0.90
2018-05-06T01:49:45.639Z,0.70
2018-05-06T01:52:11.828Z,0.60
2018-05-06T01:54:38.044Z,0.60
2018-05-06T01:57:04.220Z,0.63
2018-05-06T01:59:30.404Z,0.50
2018-05-06T02:01:56.556Z,0.60
2018-05-06T02:04:23.472Z,0.80
2018-05-06T02:06:49.636Z,0.60
2018-05-06T02:09:15.817Z,0.50
2018-05-06T02:11:42.000Z,0.70
2018-05-06T02:14:08.182Z,0.73
2018-05-06T02:16:34.368Z,0.70
2018-05-06T02:19:00.561Z,0.60
2018-05-06T02:21:27.492Z,0.60
2018-05-06T02:23:54.415Z,0.70
2018-05-06T02:26:20.589Z,0.80
2018-05-06T02:28:46.830Z,0.73
2018-05-06T02:31:12.939Z,0.60
2018-05-06T02:33:39.102Z,0.50
2018-05-06T02:36:05.285Z,0.60
2018-05-06T02:38:31.468Z,0.87
2018-05-06T02:40:57.687Z,0.70
2018-05-06T02:43:23.905Z,0.70
2018-05-06T02:45:50.140Z,0.70
2018-05-06T02:48:16.336Z,0.70
2018-05-06T02:50:42.534Z,0.80
2018-05-06T02:53:08.756Z,0.80
2018-05-06T02:55:34.952Z,1.03
2018-05-06T02:58:01.114Z,0.70
2018-05-06T03:00:27.331Z,0.50
2018-05-06T03:02:54.267Z,0.93
2018-05-06T03:05:21.261Z,0.57
2018-05-06T03:07:47.433Z,0.60
2018-05-06T03:10:13.621Z,0.70
2018-05-06T03:12:39.801Z,0.63
2018-05-06T03:15:05.977Z,0.50
2018-05-06T03:17:32.143Z,0.60
2018-05-06T03:19:58.336Z,0.70
2018-05-06T03:22:24.552Z,0.60
2018-05-06T03:24:50.724Z,0.53
2018-05-06T03:27:17.728Z,0.60
2018-05-06T03:29:43.920Z,0.60
2018-05-06T03:32:10.097Z,1.03
2018-05-06T03:34:36.300Z,0.70
2018-05-06T03:37:02.500Z,0.53
2018-05-06T03:39:28.692Z,0.60
2018-05-06T03:41:54.872Z,0.73
2018-05-06T03:44:21.058Z,0.60
2018-05-06T03:46:47.960Z,0.70
2018-05-06T03:49:14.157Z,0.60
2018-05-06T03:51:40.357Z,0.60
2018-05-06T03:54:06.529Z,0.60
2018-05-06T03:59:49.224Z,0.80
2018-05-06T04:02:38.173Z,0.67
2018-05-06T04:05:06.409Z,0.50
2018-05-06T04:07:36.030Z,0.70
2018-05-06T04:10:04.260Z,0.60
2018-05-06T04:12:32.960Z,0.70
2018-05-06T04:15:01.185Z,0.50
2018-05-06T04:17:29.932Z,0.70
2018-05-06T04:19:59.040Z,0.60
2018-05-06T04:22:27.267Z,0.60
2018-05-06T04:24:55.627Z,0.53
2018-05-06T04:27:23.852Z,0.50
2018-05-06T04:29:52.224Z,0.73
2018-05-06T04:32:20.494Z,0.90
2018-05-06T04:34:48.773Z,0.60
2018-05-06T04:37:17.000Z,0.60
2018-05-06T04:39:45.328Z,0.50
2018-05-06T04:42:13.610Z,0.60
2018-05-06T04:44:41.881Z,0.60
2018-05-06T04:47:10.467Z,0.60
2018-05-06T04:49:38.746Z,0.80
2018-05-06T04:52:07.111Z,0.60
2018-05-06T04:54:35.705Z,0.60
2018-05-06T04:57:04.004Z,0.50
2018-05-06T04:59:32.284Z,0.70
2018-05-06T05:02:00.940Z,0.50
2018-05-06T05:04:29.298Z,0.80
2018-05-06T05:06:58.304Z,0.53
2018-05-06T05:09:26.673Z,1.00
2018-05-06T05:11:55.677Z,0.83
2018-05-06T05:14:23.913Z,0.60
2018-05-06T05:16:52.229Z,0.60
2018-05-06T05:19:20.588Z,0.90
2018-05-06T05:21:49.577Z,0.50
2018-05-06T05:24:17.956Z,0.70
2018-05-06T05:26:46.953Z,0.63
2018-05-06T05:29:15.956Z,0.70
2018-05-06T05:31:44.339Z,0.70
2018-05-06T05:34:12.565Z,0.83
2018-05-06T05:36:40.788Z,0.60
2018-05-06T05:39:09.042Z,0.60
2018-05-06T05:41:38.027Z,0.70
2018-05-06T05:44:07.037Z,0.70
2018-05-06T05:46:35.603Z,0.80
2018-05-06T05:49:03.840Z,0.60
2018-05-06T05:51:32.166Z,0.70
2018-05-06T05:54:00.750Z,0.53
2018-05-06T05:56:29.160Z,0.60
2018-05-06T05:58:57.390Z,0.60
2018-05-06T06:01:25.807Z,0.60
2018-05-06T06:03:54.045Z,0.80
2018-05-06T06:06:22.285Z,0.60
2018-05-06T06:08:50.511Z,0.70
2018-05-06T06:11:18.871Z,0.70
2018-05-06T06:13:48.276Z,0.80
2018-05-06T06:16:16.513Z,0.70
2018-05-06T06:18:44.762Z,0.70
2018-05-06T06:21:12.992Z,0.60
2018-05-06T06:23:41.993Z,0.60
2018-05-06T06:26:11.071Z,0.83
2018-05-06T06:28:39.238Z,0.67
2018-05-06T06:31:08.236Z,0.60
2018-05-06T06:33:36.555Z,0.70
2018-05-06T06:36:04.789Z,0.70
2018-05-06T06:38:33.788Z,0.70
2018-05-06T06:41:02.020Z,0.60
2018-05-06T06:43:30.235Z,0.60
2018-05-06T06:45:58.473Z,0.57
2018-05-06T06:48:26.699Z,0.63
2018-05-06T06:50:55.101Z,0.67
2018-05-06T06:53:23.320Z,0.60
2018-05-06T06:55:52.316Z,0.80
2018-05-06T06:58:20.597Z,0.63
2018-05-06T07:00:49.597Z,0.50
2018-05-06T07:03:17.885Z,0.50
2018-05-06T07:05:46.315Z,0.70
2018-05-06T07:08:14.468Z,0.93
2018-05-06T07:10:42.692Z,0.80
2018-05-06T07:13:10.931Z,1.20
2018-05-06T07:15:39.331Z,0.90
2018-05-06T07:18:07.922Z,0.77
2018-05-06T07:20:36.612Z,1.27
2018-05-06T07:23:04.908Z,1.33
2018-05-06T07:25:33.147Z,0.90
2018-05-06T07:28:02.159Z,0.87
2018-05-06T07:30:30.630Z,0.80
2018-05-06T07:32:59.204Z,1.00
2018-05-06T07:35:28.203Z,1.10
2018-05-06T07:37:56.424Z,1.23
2018-05-06T07:40:24.661Z,0.90
2018-05-06T07:42:53.151Z,1.23
2018-05-06T07:45:21.820Z,1.10
2018-05-06T07:47:50.206Z,1.60
2018-05-06T07:50:18.437Z,1.27
2018-05-06T07:52:46.665Z,1.20
2018-05-06T07:55:15.729Z,1.40
2018-05-06T07:57:44.087Z,1.80
2018-05-06T08:00:12.390Z,1.83
2018-05-06T08:02:40.623Z,1.67
2018-05-06T08:05:08.858Z,1.30
2018-05-06T08:07:37.083Z,1.40
2018-05-06T08:10:05.323Z,1.70
2018-05-06T08:12:33.686Z,2.10
2018-05-06T08:15:01.909Z,1.87
2018-05-06T08:17:30.165Z,2.00
2018-05-06T08:19:58.695Z,2.20
2018-05-06T08:22:27.583Z,1.60
2018-05-06T08:24:56.278Z,1.57
2018-05-06T08:27:24.630Z,1.83
2018-05-06T08:29:53.142Z,2.00
2018-05-06T08:32:21.358Z,1.97
2018-05-06T08:34:49.593Z,1.70
2018-05-06T08:37:17.825Z,2.00
2018-05-06T08:39:46.817Z,1.77
2018-05-06T08:42:15.938Z,1.47
2018-05-06T08:44:44.185Z,1.83
2018-05-06T08:47:12.455Z,1.80
2018-05-06T08:49:40.903Z,1.47
2018-05-06T08:52:09.231Z,1.80
2018-05-06T08:54:37.740Z,1.80
2018-05-06T08:57:05.970Z,1.40
2018-05-06T08:59:34.660Z,1.83
2018-05-06T09:02:02.800Z,1.97
2018-05-06T09:04:31.048Z,2.10
2018-05-06T09:06:59.927Z,1.90
2018-05-06T09:09:28.159Z,2.17
2018-05-06T09:11:56.443Z,2.37
2018-05-06T09:14:25.039Z,2.20
2018-05-06T09:16:53.566Z,1.60
2018-05-06T09:19:21.790Z,1.80
2018-05-06T09:21:50.260Z,2.10
2018-05-06T09:24:18.661Z,1.90
2018-05-06T09:26:46.906Z,2.93
2018-05-06T09:29:15.917Z,3.40
2018-05-06T09:31:44.276Z,3.53
2018-05-06T09:34:13.344Z,3.27
2018-05-06T09:36:41.593Z,4.23
2018-05-06T09:39:09.921Z,3.30
2018-05-06T09:41:38.911Z,4.70
2018-05-06T09:44:07.924Z,3.67
2018-05-06T09:46:36.158Z,3.93
2018-05-06T09:49:04.651Z,3.50
2018-05-06T09:51:32.884Z,4.00
2018-05-06T09:54:01.118Z,4.03
2018-05-06T09:56:29.357Z,4.43
2018-05-06T09:58:57.593Z,4.00
2018-05-06T10:01:25.824Z,4.60
2018-05-06T10:03:54.206Z,3.80
2018-05-06T10:06:22.550Z,4.53
2018-05-06T10:08:50.749Z,4.27
2018-05-06T10:11:19.739Z,3.50
2018-05-06T10:13:48.738Z,4.27
2018-05-06T10:16:17.800Z,3.60
2018-05-06T10:18:46.029Z,4.03
2018-05-06T10:21:14.281Z,3.57
2018-05-06T10:23:42.518Z,4.03
2018-05-06T10:26:10.752Z,3.43
2018-05-06T10:28:39.418Z,3.80
2018-05-06T10:31:08.100Z,4.13
2018-05-06T10:33:36.414Z,4.47
2018-05-06T10:36:04.974Z,4.40
2018-05-06T10:38:33.514Z,4.30
2018-05-06T10:41:01.752Z,4.77
2018-05-06T10:43:30.198Z,4.00
2018-05-06T10:45:58.569Z,4.00
2018-05-06T10:48:27.571Z,3.93
2018-05-06T10:50:56.028Z,3.97
2018-05-06T10:53:25.037Z,4.90
2018-05-06T10:55:53.718Z,4.60
2018-05-06T10:58:22.123Z,5.23
2018-05-06T11:00:50.372Z,4.57
2018-05-06T11:03:18.740Z,4.70
2018-05-06T11:05:47.747Z,4.37
2018-05-06T11:08:15.978Z,5.67
2018-05-06T11:10:44.210Z,3.50
2018-05-06T11:13:12.447Z,4.10
2018-05-06T11:15:40.840Z,4.80
2018-05-06T11:18:09.413Z,4.17
2018-05-06T11:20:38.100Z,4.40
2018-05-06T11:23:06.500Z,4.67
2018-05-06T11:25:34.724Z,3.83
2018-05-06T11:28:02.956Z,3.97
2018-05-06T11:30:31.216Z,4.40
2018-05-06T11:32:59.440Z,4.30
2018-05-06T11:35:27.668Z,3.43
2018-05-06T11:37:55.911Z,4.40
2018-05-06T11:40:24.898Z,2.73
2018-05-06T11:42:53.914Z,2.50
2018-05-06T11:45:22.175Z,3.10
2018-05-06T11:47:50.777Z,3.50
2018-05-06T11:50:19.213Z,2.47
2018-05-06T11:52:47.610Z,2.80
2018-05-06T11:55:16.618Z,2.20
2018-05-06T11:57:45.072Z,2.27
2018-05-06T12:00:13.463Z,2.17
2018-05-06T12:02:42.872Z,2.20
2018-05-06T12:05:11.165Z,2.53
2018-05-06T12:07:39.410Z,3.03
2018-05-06T12:10:07.734Z,2.10
2018-05-06T12:12:35.974Z,1.70
2018-05-06T12:15:04.212Z,2.13
2018-05-06T12:17:32.443Z,2.17
2018-05-06T12:20:00.686Z,1.97
2018-05-06T12:22:30.299Z,2.87
2018-05-06T12:24:58.527Z,2.63
2018-05-06T12:27:26.881Z,2.30
2018-05-06T12:29:55.225Z,2.23
2018-05-06T12:32:23.445Z,2.40
2018-05-06T12:34:51.703Z,2.83
2018-05-06T12:37:20.028Z,2.17
2018-05-06T12:42:44.480Z,1.90
2018-05-06T12:45:12.728Z,2.90
2018-05-06T12:47:41.009Z,2.40
2018-05-06T12:50:09.232Z,2.60
2018-05-06T12:54:27.579Z,2.80
2018-05-06T12:56:56.197Z,2.40
2018-05-06T12:59:25.817Z,2.37
2018-05-06T13:01:54.811Z,2.10
2018-05-06T13:04:23.847Z,2.90
2018-05-06T13:06:52.283Z,2.60
2018-05-06T13:09:20.687Z,2.93
2018-05-06T13:11:48.922Z,3.17
2018-05-06T13:14:18.285Z,3.03
2018-05-06T13:16:46.440Z,3.33
2018-05-06T13:19:14.896Z,2.60
2018-05-06T13:21:43.125Z,2.60
2018-05-06T13:24:11.416Z,2.53
2018-05-06T13:26:39.595Z,2.30
2018-05-06T13:29:07.892Z,2.73
2018-05-06T13:31:36.353Z,2.43
2018-05-06T13:34:04.591Z,2.63
2018-05-06T13:36:32.849Z,2.70
2018-05-06T13:39:01.072Z,2.47
2018-05-06T13:41:29.774Z,3.00
2018-05-06T13:43:58.073Z,2.83
2018-05-06T13:46:26.244Z,3.37
2018-05-06T13:48:54.469Z,3.30
2018-05-06T13:51:22.688Z,2.70
2018-05-06T13:53:50.930Z,2.93
2018-05-06T14:27:25.252Z,2.60
2018-05-06T14:29:54.345Z,2.87
2018-05-06T14:32:22.607Z,2.40
2018-05-06T14:34:50.827Z,2.57
2018-05-06T14:37:19.481Z,2.30
2018-05-06T14:39:48.115Z,2.10
2018-05-06T14:42:16.344Z,2.40
2018-05-06T14:44:44.569Z,2.10
2018-05-06T14:47:19.888Z,2.30
2018-05-06T14:49:48.757Z,2.13
2018-05-06T14:52:17.388Z,1.73
2018-05-06T14:54:45.621Z,2.00
2018-05-06T14:57:13.869Z,1.90
2018-05-06T14:59:42.110Z,2.13
2018-05-06T15:02:10.831Z,2.03
2018-05-06T15:04:39.464Z,2.10
2018-05-06T15:07:08.188Z,1.63
2018-05-06T15:09:36.862Z,1.90
2018-05-06T15:12:05.962Z,1.87
2018-05-06T15:14:36.865Z,2.00
2018-05-06T15:17:06.443Z,1.40
2018-05-06T15:19:34.800Z,1.70
2018-05-06T15:22:03.165Z,1.67
2018-05-06T15:24:32.162Z,1.73
2018-05-06T15:27:00.519Z,1.60
2018-05-06T15:29:28.824Z,1.73
2018-05-06T15:31:57.049Z,1.53
2018-05-06T15:34:25.648Z,2.00
2018-05-06T15:36:54.635Z,1.50
2018-05-06T15:39:23.953Z,1.20
2018-05-06T15:41:53.003Z,1.83
2018-05-06T15:44:21.216Z,2.43
2018-05-06T15:46:50.212Z,1.63
2018-05-06T15:49:18.439Z,1.80
2018-05-06T15:51:46.671Z,1.43
2018-05-06T15:54:14.894Z,1.90
2018-05-06T15:56:43.517Z,1.40
2018-05-06T15:59:11.750Z,1.90
2018-05-06T16:01:39.984Z,1.83
2018-05-06T16:04:14.815Z,1.70
2018-05-06T16:06:43.262Z,1.53
2018-05-06T16:09:11.502Z,1.43
2018-05-06T16:11:39.739Z,2.00
2018-05-06T16:14:07.969Z,1.90
2018-05-06T16:16:36.965Z,1.50
2018-05-06T16:19:05.961Z,1.70
2018-05-06T16:21:34.994Z,1.63
2018-05-06T16:24:03.238Z,2.20
2018-05-06T16:26:31.559Z,1.57
2018-05-06T16:28:59.991Z,1.90
2018-05-06T16:31:28.743Z,1.80
2018-05-06T16:33:57.746Z,1.90
2018-05-06T16:36:25.962Z,1.77
2018-05-06T16:38:54.601Z,1.40
2018-05-06T16:41:23.625Z,1.47
2018-05-06T16:43:51.884Z,1.50
2018-05-06T16:46:20.475Z,1.37
2018-05-06T16:48:49.159Z,1.67
2018-05-06T16:51:18.151Z,1.27
2018-05-06T16:53:47.154Z,1.73
2018-05-06T16:56:15.629Z,1.40
2018-05-06T16:58:44.086Z,1.50
2018-05-06T17:01:12.331Z,1.70
2018-05-06T17:03:41.280Z,1.50
2018-05-06T17:06:09.530Z,1.50
2018-05-06T17:08:37.911Z,1.57
2018-05-06T17:11:06.509Z,1.40
2018-05-06T17:13:34.873Z,1.60
2018-05-06T17:16:03.109Z,1.40
2018-05-06T17:18:31.361Z,1.47
2018-05-06T17:21:00.026Z,1.10
2018-05-06T17:23:28.391Z,1.40
2018-05-06T17:25:57.755Z,1.67
2018-05-06T17:28:26.099Z,1.60
2018-05-06T17:30:54.348Z,1.40
2018-05-06T17:33:22.584Z,1.07
2018-05-06T17:35:50.800Z,1.30
2018-05-06T17:38:19.029Z,1.13
2018-05-06T17:40:47.363Z,1.47
2018-05-06T17:43:16.627Z,1.27
2018-05-06T17:45:44.854Z,1.27
2018-05-06T17:48:13.109Z,1.37
2018-05-06T17:50:41.327Z,1.30
2018-05-06T17:53:10.338Z,1.30
2018-05-06T17:55:39.353Z,1.17
2018-05-06T17:58:07.592Z,1.40
2018-05-06T18:00:35.840Z,1.50
2018-05-06T18:03:04.069Z,1.17
2018-05-06T18:05:32.314Z,1.53
2018-05-06T18:08:00.812Z,1.30
2018-05-06T18:10:30.397Z,1.30
2018-05-06T18:12:58.507Z,1.30
2018-05-06T18:15:27.802Z,1.30
2018-05-06T18:17:56.103Z,2.13
2018-05-06T18:20:24.324Z,1.53
2018-05-06T18:22:52.560Z,1.20
2018-05-06T18:25:20.820Z,1.17
2018-05-06T18:27:49.045Z,1.10
2018-05-06T18:30:17.673Z,1.33
2018-05-06T18:32:45.891Z,1.30
2018-05-06T18:35:14.126Z,1.10
2018-05-06T18:37:42.361Z,1.47
2018-05-06T18:40:10.601Z,1.33
2018-05-06T18:42:40.542Z,1.03
2018-05-06T18:45:08.887Z,1.20
2018-05-06T18:47:37.427Z,1.30
2018-05-06T18:50:05.662Z,1.20
2018-05-06T18:52:34.901Z,1.23
2018-05-06T18:55:03.132Z,1.03
2018-05-06T18:57:31.752Z,1.20
2018-05-06T19:00:00.135Z,1.40
2018-05-06T19:02:28.372Z,1.20
2018-05-06T19:04:56.656Z,1.10
2018-05-06T19:07:25.251Z,1.10
2018-05-06T19:09:54.257Z,1.30
2018-05-06T19:12:22.489Z,1.10
2018-05-06T19:14:52.128Z,1.30
2018-05-06T19:17:20.368Z,1.17
2018-05-06T19:19:48.605Z,1.30
2018-05-06T19:22:16.851Z,1.10
2018-05-06T19:24:45.338Z,1.17
2018-05-06T19:27:13.913Z,1.07
2018-05-06T19:29:42.658Z,1.00
2018-05-06T19:32:12.406Z,1.30
2018-05-06T19:34:40.508Z,1.60
2018-05-06T19:37:08.735Z,1.30
2018-05-06T19:39:37.365Z,1.60
2018-05-06T19:42:06.168Z,1.17
2018-05-06T19:44:35.117Z,1.10
2018-05-06T19:47:03.795Z,1.30
2018-05-06T19:49:32.845Z,1.20
2018-05-06T19:52:01.200Z,1.50
2018-05-06T19:54:29.429Z,1.13
2018-05-06T19:56:57.719Z,1.17
2018-05-06T19:59:25.957Z,1.30
2018-05-06T20:01:54.769Z,1.10
2018-05-06T20:04:23.419Z,1.37
2018-05-06T20:06:51.643Z,1.20
2018-05-06T20:09:19.874Z,1.20
2018-05-06T20:11:49.252Z,1.00
2018-05-06T20:14:17.489Z,1.17
2018-05-06T20:16:46.488Z,1.30
2018-05-06T20:19:15.478Z,1.00
2018-05-06T20:21:43.749Z,0.90
2018-05-06T20:24:12.421Z,1.20
2018-05-06T20:26:41.438Z,1.27
2018-05-06T20:29:09.673Z,1.30
2018-05-06T20:31:39.298Z,1.60
2018-05-06T20:34:07.520Z,0.90
2018-05-06T20:36:35.752Z,1.20
2018-05-06T20:39:03.995Z,1.60
2018-05-06T20:41:32.815Z,1.03
2018-05-06T20:44:01.047Z,0.90
2018-05-06T20:46:29.290Z,1.13
2018-05-06T20:48:57.549Z,1.27
2018-05-06T20:51:25.935Z,1.27
2018-05-06T20:53:54.275Z,1.10
2018-05-06T20:56:22.517Z,1.40
2018-05-06T20:58:50.817Z,1.03
2018-05-06T21:01:19.052Z,1.50
2018-05-06T21:03:47.381Z,1.17
2018-05-06T21:06:16.819Z,0.93
2018-05-06T21:08:45.471Z,1.30
2018-05-06T21:11:14.153Z,1.13
2018-05-06T21:13:42.461Z,1.27
2018-05-06T21:16:10.645Z,1.37
2018-05-06T21:18:39.094Z,1.00
2018-05-06T21:21:07.328Z,1.13
2018-05-06T21:23:35.744Z,1.10
2018-05-06T21:26:04.737Z,1.00
2018-05-06T21:28:32.983Z,1.00
2018-05-06T21:31:01.679Z,1.30
2018-05-06T21:33:31.580Z,1.07
2018-05-06T21:36:01.311Z,1.00
2018-05-06T21:38:29.516Z,1.33
2018-05-06T21:40:57.751Z,0.90
2018-05-06T21:43:26.277Z,0.80
2018-05-06T21:45:54.695Z,1.17
2018-05-06T21:48:23.785Z,1.10
2018-05-06T21:50:52.788Z,1.17
2018-05-06T21:53:21.374Z,1.13
2018-05-06T21:55:49.618Z,1.00
2018-05-06T21:58:18.751Z,1.03
2018-05-06T22:00:47.454Z,1.20
2018-05-06T22:03:16.112Z,0.90
2018-05-06T22:05:45.207Z,1.00
2018-05-06T22:08:13.903Z,1.23
2018-05-06T22:10:44.119Z,1.10
2018-05-06T22:13:12.893Z,1.20
2018-05-06T22:15:41.180Z,1.00
2018-05-06T22:18:09.409Z,1.00
2018-05-06T22:20:37.824Z,1.03
2018-05-06T22:23:06.834Z,0.90
2018-05-06T22:25:35.504Z,1.20
2018-05-06T22:28:04.574Z,1.03
2018-05-06T22:30:33.219Z,1.10
2018-05-06T22:33:01.455Z,1.00
2018-05-06T22:35:30.608Z,1.00
2018-05-06T22:37:58.828Z,1.10
2018-05-06T22:40:27.197Z,1.10
2018-05-06T22:42:55.505Z,1.10
2018-05-06T22:45:23.744Z,1.00
2018-05-06T22:47:52.749Z,1.20
2018-05-06T22:50:20.986Z,1.23
2018-05-06T22:52:49.604Z,0.90
2018-05-06T22:55:17.841Z,0.90
2018-05-06T22:57:46.077Z,0.80
2018-05-06T23:00:14.359Z,1.30
2018-05-06T23:02:43.529Z,0.90
2018-05-06T23:05:11.757Z,1.10
2018-05-06T23:07:41.488Z,0.83
2018-05-06T23:10:09.770Z,1.00
2018-05-06T23:12:38.459Z,1.20
2018-05-06T23:15:07.647Z,0.97
2018-05-06T23:17:36.237Z,1.23
2018-05-06T23:20:04.460Z,1.10
2018-05-06T23:22:32.680Z,1.10
2018-05-06T23:25:00.919Z,1.10
2018-05-06T23:27:29.922Z,1.07
2018-05-06T23:29:58.142Z,1.20
2018-05-06T23:32:26.382Z,1.00
2018-05-06T23:34:54.599Z,1.00
2018-05-06T23:37:22.821Z,1.00
2018-05-06T23:39:51.068Z,0.97
2018-05-06T23:42:19.292Z,0.83
2018-05-06T23:44:48.284Z,0.80
2018-05-06T23:47:17.892Z,0.90
2018-05-06T23:49:47.154Z,0.90
2018-05-06T23:52:16.148Z,1.20
2018-05-06T23:54:44.381Z,1.00
2018-05-06T23:57:13.012Z,0.80
2018-05-06T23:59:42.656Z,0.90
